sensor_id;sensor_type;location;lat;lon;timestamp;pressure;altitude;pressure_sealevel;temperature;humidity
64616;BME280;51027;42.162;24.754;2024-01-16T00:00:02;98422.78;;;1.78;100.00
64616;BME280;51027;42.162;24.754;2024-01-16T00:02:28;98414.97;;;1.80;100.00
64616;BME280;51027;42.162;24.754;2024-01-16T00:04:53;98422.16;;;2.02;100.00
64616;BME280;51027;42.162;24.754;2024-01-16T00:07:19;98417.81;;;2.05;100.00
64616;BME280;51027;42.162;24.754;2024-01-16T00:09:45;98414.47;;;1.99;100.00
64616;BME280;51027;42.162;24.754;2024-01-16T00:12:13;98406.44;;;2.09;100.00
64616;BME280;51027;42.162;24.754;2024-01-16T00:14:39;98401.16;;;2.12;100.00
64616;BME280;51027;42.162;24.754;2024-01-16T00:17:05;98388.03;;;1.84;100.00
64616;BME280;51027;42.162;24.754;2024-01-16T00:19:31;98419.03;;;1.90;100.00
64616;BME280;51027;42.162;24.754;2024-01-16T00:21:57;98417.81;;;2.05;100.00
64616;BME280;51027;42.162;24.754;2024-01-16T00:24:23;98402.38;;;1.98;100.00
64616;BME280;51027;42.162;24.754;2024-01-16T00:26:49;98428.19;;;2.05;100.00
64616;BME280;51027;42.162;24.754;2024-01-16T00:29:15;98422.34;;;1.96;100.00
64616;BME280;51027;42.162;24.754;2024-01-16T00:31:41;98427.09;;;2.13;100.00
64616;BME280;51027;42.162;24.754;2024-01-16T00:34:06;98419.28;;;2.13;100.00
64616;BME280;51027;42.162;24.754;2024-01-16T00:36:32;98419.38;;;2.10;100.00
64616;BME280;51027;42.162;24.754;2024-01-16T00:38:57;98423.81;;;2.07;100.00
64616;BME280;51027;42.162;24.754;2024-01-16T00:41:23;98420.38;;;2.06;100.00
64616;BME280;51027;42.162;24.754;2024-01-16T00:43:50;98433.91;;;1.83;100.00
64616;BME280;51027;42.162;24.754;2024-01-16T00:46:16;98434.78;;;1.82;100.00
64616;BME280;51027;42.162;24.754;2024-01-16T00:48:42;98414.06;;;1.81;100.00
64616;BME280;51027;42.162;24.754;2024-01-16T00:51:10;98413.09;;;1.49;100.00
64616;BME280;51027;42.162;24.754;2024-01-16T00:53:41;98403.59;;;1.85;100.00
64616;BME280;51027;42.162;24.754;2024-01-16T00:56:07;98341.47;;;1.43;100.00
64616;BME280;51027;42.162;24.754;2024-01-16T00:58:38;98412.41;;;1.78;100.00
64616;BME280;51027;42.162;24.754;2024-01-16T01:01:03;98386.19;;;1.53;100.00
64616;BME280;51027;42.162;24.754;2024-01-16T01:03:34;98397.63;;;1.80;100.00
64616;BME280;51027;42.162;24.754;2024-01-16T01:06:00;98391.59;;;1.80;100.00
64616;BME280;51027;42.162;24.754;2024-01-16T01:08:27;98386.59;;;1.72;100.00
64616;BME280;51027;42.162;24.754;2024-01-16T01:10:52;98392.38;;;1.83;100.00
64616;BME280;51027;42.162;24.754;2024-01-16T01:13:18;98387.44;;;1.74;100.00
64616;BME280;51027;42.162;24.754;2024-01-16T01:15:46;98392.34;;;1.49;100.00
64616;BME280;51027;42.162;24.754;2024-01-16T01:18:12;98388.81;;;1.52;100.00
64616;BME280;51027;42.162;24.754;2024-01-16T01:20:39;98392.25;;;1.52;100.00
64616;BME280;51027;42.162;24.754;2024-01-16T01:23:05;98378.22;;;1.61;100.00
64616;BME280;51027;42.162;24.754;2024-01-16T01:25:30;98371.81;;;1.40;100.00
64616;BME280;51027;42.162;24.754;2024-01-16T01:27:56;98369.16;;;1.41;100.00
64616;BME280;51027;42.162;24.754;2024-01-16T01:30:22;98357.84;;;1.46;100.00
64616;BME280;51027;42.162;24.754;2024-01-16T01:32:52;98359.88;;;1.68;100.00
64616;BME280;51027;42.162;24.754;2024-01-16T01:35:20;98359.09;;;1.65;100.00
64616;BME280;51027;42.162;24.754;2024-01-16T01:37:46;98354.25;;;1.51;100.00
64616;BME280;51027;42.162;24.754;2024-01-16T01:40:15;98332.09;;;1.38;100.00
64616;BME280;51027;42.162;24.754;2024-01-16T01:42:42;98369.03;;;1.48;100.00
64616;BME280;51027;42.162;24.754;2024-01-16T01:45:17;98365.72;;;1.41;100.00
64616;BME280;51027;42.162;24.754;2024-01-16T01:47:42;98376.91;;;1.43;100.00
64616;BME280;51027;42.162;24.754;2024-01-16T01:50:09;98381.50;;;1.33;100.00
64616;BME280;51027;42.162;24.754;2024-01-16T01:52:37;98376.06;;;1.42;100.00
64616;BME280;51027;42.162;24.754;2024-01-16T01:55:07;98363.84;;;1.48;100.00
64616;BME280;51027;42.162;24.754;2024-01-16T01:57:36;98373.47;;;1.44;100.00
64616;BME280;51027;42.162;24.754;2024-01-16T02:00:03;98386.03;;;1.59;100.00
64616;BME280;51027;42.162;24.754;2024-01-16T02:02:31;98374.72;;;1.62;100.00
64616;BME280;51027;42.162;24.754;2024-01-16T02:04:56;98363.03;;;1.46;100.00
64616;BME280;51027;42.162;24.754;2024-01-16T02:07:23;98363.72;;;1.54;100.00
64616;BME280;51027;42.162;24.754;2024-01-16T02:09:49;98375.03;;;1.50;100.00
64616;BME280;51027;42.162;24.754;2024-01-16T02:12:15;98358.53;;;1.17;100.00
64616;BME280;51027;42.162;24.754;2024-01-16T02:14:40;98362.69;;;1.24;100.00
64616;BME280;51027;42.162;24.754;2024-01-16T02:17:06;98368.00;;;1.18;100.00
64616;BME280;51027;42.162;24.754;2024-01-16T02:19:31;98382.72;;;1.17;100.00
64616;BME280;51027;42.162;24.754;2024-01-16T02:21:59;98385.81;;;0.94;100.00
64616;BME280;51027;42.162;24.754;2024-01-16T02:24:26;98391.34;;;1.18;100.00
64616;BME280;51027;42.162;24.754;2024-01-16T02:26:52;98398.81;;;1.31;100.00
64616;BME280;51027;42.162;24.754;2024-01-16T02:29:18;98375.72;;;1.58;100.00
64616;BME280;51027;42.162;24.754;2024-01-16T02:31:44;98380.00;;;1.59;100.00
64616;BME280;51027;42.162;24.754;2024-01-16T02:34:10;98402.38;;;1.64;100.00
64616;BME280;51027;42.162;24.754;2024-01-16T02:36:35;98384.72;;;1.41;100.00
64616;BME280;51027;42.162;24.754;2024-01-16T02:39:01;98386.72;;;1.30;100.00
64616;BME280;51027;42.162;24.754;2024-01-16T02:41:26;98388.88;;;1.13;100.00
64616;BME280;51027;42.162;24.754;2024-01-16T02:43:52;98385.06;;;1.28;100.00
64616;BME280;51027;42.162;24.754;2024-01-16T02:46:17;98394.16;;;1.46;100.00
64616;BME280;51027;42.162;24.754;2024-01-16T02:48:43;98372.13;;;1.62;100.00
64616;BME280;51027;42.162;24.754;2024-01-16T02:51:09;98367.63;;;1.70;100.00
64616;BME280;51027;42.162;24.754;2024-01-16T02:53:35;98366.56;;;1.41;100.00
64616;BME280;51027;42.162;24.754;2024-01-16T02:56:00;98359.03;;;1.68;100.00
64616;BME280;51027;42.162;24.754;2024-01-16T02:58:30;98387.00;;;1.91;100.00
64616;BME280;51027;42.162;24.754;2024-01-16T03:00:58;98376.50;;;1.95;100.00
64616;BME280;51027;42.162;24.754;2024-01-16T03:03:24;98395.41;;;2.00;100.00
64616;BME280;51027;42.162;24.754;2024-01-16T03:05:50;98410.69;;;2.11;99.38
64616;BME280;51027;42.162;24.754;2024-01-16T03:08:15;98400.44;;;2.07;99.58
64616;BME280;51027;42.162;24.754;2024-01-16T03:10:41;98409.66;;;2.18;99.43
64616;BME280;51027;42.162;24.754;2024-01-16T03:13:06;98379.56;;;2.10;99.42
64616;BME280;51027;42.162;24.754;2024-01-16T03:15:32;98408.00;;;2.14;99.43
64616;BME280;51027;42.162;24.754;2024-01-16T03:17:58;98405.06;;;1.95;100.00
64616;BME280;51027;42.162;24.754;2024-01-16T03:20:24;98410.75;;;2.10;98.84
64616;BME280;51027;42.162;24.754;2024-01-16T03:22:49;98406.44;;;2.09;98.61
64616;BME280;51027;42.162;24.754;2024-01-16T03:25:16;98421.88;;;2.15;98.43
64616;BME280;51027;42.162;24.754;2024-01-16T03:27:42;98400.69;;;1.97;98.40
64616;BME280;51027;42.162;24.754;2024-01-16T03:30:08;98389.16;;;2.08;98.53
64616;BME280;51027;42.162;24.754;2024-01-16T03:32:35;98409.53;;;2.23;98.04
64616;BME280;51027;42.162;24.754;2024-01-16T03:35:00;98410.59;;;2.16;98.58
64616;BME280;51027;42.162;24.754;2024-01-16T03:37:26;98389.28;;;1.69;99.74
64616;BME280;51027;42.162;24.754;2024-01-16T03:39:51;98415.94;;;1.76;99.04
64616;BME280;51027;42.162;24.754;2024-01-16T03:42:17;98424.44;;;1.81;99.85
64616;BME280;51027;42.162;24.754;2024-01-16T03:44:42;98428.97;;;1.74;99.32
64616;BME280;51027;42.162;24.754;2024-01-16T03:47:08;98412.03;;;1.58;99.30
64616;BME280;51027;42.162;24.754;2024-01-16T03:49:34;98436.16;;;1.61;100.00
64616;BME280;51027;42.162;24.754;2024-01-16T03:52:00;98403.75;;;1.05;100.00
64616;BME280;51027;42.162;24.754;2024-01-16T03:54:25;98419.47;;;1.36;100.00
64616;BME280;51027;42.162;24.754;2024-01-16T03:56:51;98445.69;;;1.61;100.00
64616;BME280;51027;42.162;24.754;2024-01-16T03:59:17;98454.22;;;1.66;100.00
64616;BME280;51027;42.162;24.754;2024-01-16T04:01:42;98458.06;;;1.50;100.00
64616;BME280;51027;42.162;24.754;2024-01-16T04:04:10;98448.56;;;1.49;100.00
64616;BME280;51027;42.162;24.754;2024-01-16T04:06:35;98431.00;;;1.60;100.00
64616;BME280;51027;42.162;24.754;2024-01-16T04:09:01;98450.84;;;1.62;100.00
64616;BME280;51027;42.162;24.754;2024-01-16T04:11:28;98463.72;;;1.67;100.00
64616;BME280;51027;42.162;24.754;2024-01-16T04:13:54;98454.53;;;1.52;100.00
64616;BME280;51027;42.162;24.754;2024-01-16T04:16:20;98471.84;;;1.52;100.00
64616;BME280;51027;42.162;24.754;2024-01-16T04:18:45;98479.16;;;1.71;100.00
64616;BME280;51027;42.162;24.754;2024-01-16T04:21:11;98491.75;;;1.88;100.00
64616;BME280;51027;42.162;24.754;2024-01-16T04:23:36;98502.75;;;1.99;100.00
64616;BME280;51027;42.162;24.754;2024-01-16T04:26:02;98515.25;;;2.19;99.53
64616;BME280;51027;42.162;24.754;2024-01-16T04:28:28;98509.13;;;2.22;99.20
64616;BME280;51027;42.162;24.754;2024-01-16T04:30:53;98512.69;;;1.81;100.00
64616;BME280;51027;42.162;24.754;2024-01-16T04:33:19;98505.50;;;1.92;100.00
64616;BME280;51027;42.162;24.754;2024-01-16T04:35:44;98501.88;;;1.99;99.41
64616;BME280;51027;42.162;24.754;2024-01-16T04:38:10;98490.44;;;2.08;99.03
64616;BME280;51027;42.162;24.754;2024-01-16T04:40:35;98504.78;;;1.87;99.29
64616;BME280;51027;42.162;24.754;2024-01-16T04:43:01;98521.13;;;2.27;98.33
64616;BME280;51027;42.162;24.754;2024-01-16T04:45:28;98509.81;;;1.93;96.94
64616;BME280;51027;42.162;24.754;2024-01-16T04:47:53;98509.81;;;1.94;98.91
64616;BME280;51027;42.162;24.754;2024-01-16T04:50:19;98519.59;;;1.82;97.56
64616;BME280;51027;42.162;24.754;2024-01-16T04:52:44;98528.56;;;2.06;99.01
64616;BME280;51027;42.162;24.754;2024-01-16T04:55:10;98547.06;;;1.92;98.50
64616;BME280;51027;42.162;24.754;2024-01-16T04:57:35;98541.94;;;2.26;97.15
64616;BME280;51027;42.162;24.754;2024-01-16T05:00:01;98528.63;;;2.02;95.75
64616;BME280;51027;42.162;24.754;2024-01-16T05:02:27;98549.81;;;2.21;95.69
64616;BME280;51027;42.162;24.754;2024-01-16T05:04:52;98548.97;;;2.21;94.94
64616;BME280;51027;42.162;24.754;2024-01-16T05:07:18;98551.53;;;2.22;94.00
64616;BME280;51027;42.162;24.754;2024-01-16T05:09:46;98550.84;;;2.16;92.85
64616;BME280;51027;42.162;24.754;2024-01-16T05:12:12;98560.47;;;2.11;92.66
64616;BME280;51027;42.162;24.754;2024-01-16T05:14:37;98575.44;;;1.99;93.14
64616;BME280;51027;42.162;24.754;2024-01-16T05:17:03;98580.13;;;2.21;93.33
64616;BME280;51027;42.162;24.754;2024-01-16T05:19:28;98576.41;;;1.95;93.76
64616;BME280;51027;42.162;24.754;2024-01-16T05:21:54;98585.66;;;2.07;93.03
64616;BME280;51027;42.162;24.754;2024-01-16T05:24:19;98589.03;;;2.11;93.84
64616;BME280;51027;42.162;24.754;2024-01-16T05:26:45;98584.84;;;2.03;94.66
64616;BME280;51027;42.162;24.754;2024-01-16T05:29:10;98565.97;;;1.58;96.38
64616;BME280;51027;42.162;24.754;2024-01-16T05:31:40;98574.56;;;1.60;97.19
64616;BME280;51027;42.162;24.754;2024-01-16T05:34:07;98604.03;;;1.58;97.91
64616;BME280;51027;42.162;24.754;2024-01-16T05:36:33;98617.59;;;1.70;98.20
64616;BME280;51027;42.162;24.754;2024-01-16T05:38:58;98629.69;;;1.71;97.28
64616;BME280;51027;42.162;24.754;2024-01-16T05:41:24;98636.81;;;1.62;98.38
64616;BME280;51027;42.162;24.754;2024-01-16T05:43:49;98636.88;;;1.59;97.73
64616;BME280;51027;42.162;24.754;2024-01-16T05:46:15;98643.06;;;1.93;95.95
64616;BME280;51027;42.162;24.754;2024-01-16T05:48:40;98642.25;;;1.91;94.98
64616;BME280;51027;42.162;24.754;2024-01-16T05:51:06;98646.88;;;1.79;96.32
64616;BME280;51027;42.162;24.754;2024-01-16T05:53:31;98626.22;;;1.74;96.36
64616;BME280;51027;42.162;24.754;2024-01-16T05:55:57;98635.84;;;2.08;94.19
64616;BME280;51027;42.162;24.754;2024-01-16T05:58:22;98660.94;;;2.09;94.98
64616;BME280;51027;42.162;24.754;2024-01-16T06:00:48;98650.31;;;1.79;95.47
64616;BME280;51027;42.162;24.754;2024-01-16T06:03:13;98684.69;;;1.90;96.19
64616;BME280;51027;42.162;24.754;2024-01-16T06:05:39;98649.94;;;1.97;94.76
64616;BME280;51027;42.162;24.754;2024-01-16T06:08:04;98702.88;;;2.30;94.39
64616;BME280;51027;42.162;24.754;2024-01-16T06:10:30;98694.59;;;2.89;90.94
64616;BME280;51027;42.162;24.754;2024-01-16T06:12:56;98710.53;;;3.11;88.54
64616;BME280;51027;42.162;24.754;2024-01-16T06:15:22;98677.84;;;2.64;91.33
64616;BME280;51027;42.162;24.754;2024-01-16T06:17:48;98723.38;;;2.81;93.55
64616;BME280;51027;42.162;24.754;2024-01-16T06:20:14;98729.94;;;2.96;94.06
64616;BME280;51027;42.162;24.754;2024-01-16T06:22:39;98739.31;;;3.03;94.97
64616;BME280;51027;42.162;24.754;2024-01-16T06:25:05;98751.16;;;3.15;95.29
64616;BME280;51027;42.162;24.754;2024-01-16T06:27:31;98763.81;;;3.30;94.75
64616;BME280;51027;42.162;24.754;2024-01-16T06:29:57;98764.88;;;3.22;95.70
64616;BME280;51027;42.162;24.754;2024-01-16T06:32:23;98768.69;;;3.42;96.06
64616;BME280;51027;42.162;24.754;2024-01-16T06:34:49;98776.16;;;3.56;97.13
64616;BME280;51027;42.162;24.754;2024-01-16T06:37:14;98729.53;;;3.47;97.28
64616;BME280;51027;42.162;24.754;2024-01-16T06:39:40;98734.47;;;3.90;96.97
64616;BME280;51027;42.162;24.754;2024-01-16T06:42:05;98772.19;;;4.38;97.32
64616;BME280;51027;42.162;24.754;2024-01-16T06:44:31;98774.72;;;4.69;96.53
64616;BME280;51027;42.162;24.754;2024-01-16T06:46:57;98787.09;;;4.91;97.04
64616;BME280;51027;42.162;24.754;2024-01-16T06:49:22;98757.03;;;5.06;97.05
64616;BME280;51027;42.162;24.754;2024-01-16T06:51:47;98793.25;;;5.43;96.87
64616;BME280;51027;42.162;24.754;2024-01-16T06:54:13;98801.34;;;5.62;96.20
64616;BME280;51027;42.162;24.754;2024-01-16T06:56:38;98811.44;;;5.73;95.49
64616;BME280;51027;42.162;24.754;2024-01-16T06:59:04;98811.75;;;5.89;95.71
64616;BME280;51027;42.162;24.754;2024-01-16T07:01:29;98815.28;;;6.13;95.37
64616;BME280;51027;42.162;24.754;2024-01-16T07:03:55;98829.47;;;6.30;95.15
64616;BME280;51027;42.162;24.754;2024-01-16T07:06:21;98821.91;;;6.23;95.23
64616;BME280;51027;42.162;24.754;2024-01-16T07:08:47;98837.78;;;6.42;94.20
64616;BME280;51027;42.162;24.754;2024-01-16T07:11:12;98840.00;;;6.52;93.64
64616;BME280;51027;42.162;24.754;2024-01-16T07:13:41;98856.81;;;6.47;93.68
64616;BME280;51027;42.162;24.754;2024-01-16T07:16:10;98867.78;;;6.56;93.04
64616;BME280;51027;42.162;24.754;2024-01-16T07:18:37;98871.72;;;6.43;93.32
64616;BME280;51027;42.162;24.754;2024-01-16T07:21:03;98888.47;;;6.62;92.82
64616;BME280;51027;42.162;24.754;2024-01-16T07:23:29;98899.69;;;6.66;92.68
64616;BME280;51027;42.162;24.754;2024-01-16T07:25:55;98885.38;;;6.51;92.87
64616;BME280;51027;42.162;24.754;2024-01-16T07:28:20;98910.25;;;6.63;92.95
64616;BME280;51027;42.162;24.754;2024-01-16T07:30:47;98908.28;;;6.70;92.95
64616;BME280;51027;42.162;24.754;2024-01-16T07:33:13;98905.78;;;6.67;93.36
64616;BME280;51027;42.162;24.754;2024-01-16T07:35:38;98916.06;;;6.71;93.85
64616;BME280;51027;42.162;24.754;2024-01-16T07:38:06;98923.88;;;6.73;94.33
64616;BME280;51027;42.162;24.754;2024-01-16T07:40:32;98926.47;;;6.73;93.62
64616;BME280;51027;42.162;24.754;2024-01-16T07:42:57;98933.41;;;6.74;93.57
64616;BME280;51027;42.162;24.754;2024-01-16T07:45:24;98950.69;;;6.79;92.86
64616;BME280;51027;42.162;24.754;2024-01-16T07:47:49;98957.78;;;6.76;93.03
64616;BME280;51027;42.162;24.754;2024-01-16T07:50:15;98962.78;;;6.82;92.63
64616;BME280;51027;42.162;24.754;2024-01-16T07:52:40;98970.66;;;6.82;92.34
64616;BME280;51027;42.162;24.754;2024-01-16T07:55:06;98981.06;;;6.83;92.16
64616;BME280;51027;42.162;24.754;2024-01-16T07:57:32;98979.53;;;6.78;91.91
64616;BME280;51027;42.162;24.754;2024-01-16T07:59:58;98992.56;;;6.79;91.11
64616;BME280;51027;42.162;24.754;2024-01-16T08:02:31;98995.34;;;6.75;91.05
64616;BME280;51027;42.162;24.754;2024-01-16T08:04:57;98994.00;;;6.88;89.95
64616;BME280;51027;42.162;24.754;2024-01-16T08:07:22;99001.06;;;6.86;89.47
64616;BME280;51027;42.162;24.754;2024-01-16T08:09:48;99007.81;;;6.91;89.01
64616;BME280;51027;42.162;24.754;2024-01-16T08:12:13;99011.19;;;6.95;88.64
64616;BME280;51027;42.162;24.754;2024-01-16T08:14:39;98992.81;;;6.72;88.73
64616;BME280;51027;42.162;24.754;2024-01-16T08:17:04;99000.56;;;6.75;88.29
64616;BME280;51027;42.162;24.754;2024-01-16T08:19:30;99032.88;;;6.99;87.98
64616;BME280;51027;42.162;24.754;2024-01-16T08:21:56;99011.91;;;6.75;87.51
64616;BME280;51027;42.162;24.754;2024-01-16T08:24:22;99031.69;;;6.82;86.54
64616;BME280;51027;42.162;24.754;2024-01-16T08:26:48;99045.91;;;7.00;85.98
64616;BME280;51027;42.162;24.754;2024-01-16T08:29:13;99046.00;;;7.22;85.14
64616;BME280;51027;42.162;24.754;2024-01-16T08:31:39;99056.16;;;7.31;84.47
64616;BME280;51027;42.162;24.754;2024-01-16T08:34:05;99065.25;;;7.44;83.58
64616;BME280;51027;42.162;24.754;2024-01-16T08:36:30;99066.88;;;7.72;81.75
64616;BME280;51027;42.162;24.754;2024-01-16T08:38:56;99070.66;;;7.87;80.90
64616;BME280;51027;42.162;24.754;2024-01-16T08:41:21;99053.78;;;7.94;80.23
64616;BME280;51027;42.162;24.754;2024-01-16T08:43:47;99064.06;;;8.00;79.15
64616;BME280;51027;42.162;24.754;2024-01-16T08:46:13;99079.66;;;8.03;78.55
64616;BME280;51027;42.162;24.754;2024-01-16T08:48:38;99084.59;;;7.89;79.54
64616;BME280;51027;42.162;24.754;2024-01-16T08:51:08;99082.75;;;7.91;78.41
64616;BME280;51027;42.162;24.754;2024-01-16T08:53:37;99099.97;;;7.98;77.96
64616;BME280;51027;42.162;24.754;2024-01-16T08:56:03;99103.16;;;7.83;77.98
64616;BME280;51027;42.162;24.754;2024-01-16T08:58:32;99118.59;;;7.90;77.78
64616;BME280;51027;42.162;24.754;2024-01-16T09:01:02;99119.69;;;7.85;77.32
64616;BME280;51027;42.162;24.754;2024-01-16T09:03:28;99127.03;;;7.75;77.38
64616;BME280;51027;42.162;24.754;2024-01-16T09:05:53;99130.47;;;7.77;76.82
64616;BME280;51027;42.162;24.754;2024-01-16T09:08:19;99133.81;;;8.04;76.31
64616;BME280;51027;42.162;24.754;2024-01-16T09:10:44;99139.75;;;8.09;75.29
64616;BME280;51027;42.162;24.754;2024-01-16T09:13:10;99134.19;;;8.17;74.63
64616;BME280;51027;42.162;24.754;2024-01-16T09:15:36;99141.09;;;8.43;73.08
64616;BME280;51027;42.162;24.754;2024-01-16T09:18:02;99137.47;;;10.83;65.53
64616;BME280;51027;42.162;24.754;2024-01-16T09:20:27;99135.00;;;15.59;50.74
64616;BME280;51027;42.162;24.754;2024-01-16T09:22:53;99140.09;;;18.36;43.02
64616;BME280;51027;42.162;24.754;2024-01-16T09:25:18;99142.22;;;19.19;40.83
64616;BME280;51027;42.162;24.754;2024-01-16T09:27:44;99158.16;;;17.42;40.99
64616;BME280;51027;42.162;24.754;2024-01-16T09:30:09;99164.06;;;18.81;37.05
64616;BME280;51027;42.162;24.754;2024-01-16T09:32:35;99131.13;;;16.39;41.33
64616;BME280;51027;42.162;24.754;2024-01-16T09:35:02;99160.69;;;14.79;43.61
64616;BME280;51027;42.162;24.754;2024-01-16T09:37:29;99161.09;;;11.54;49.42
64616;BME280;51027;42.162;24.754;2024-01-16T09:39:55;99149.63;;;9.73;55.17
64616;BME280;51027;42.162;24.754;2024-01-16T09:42:20;99127.44;;;9.39;57.48
64616;BME280;51027;42.162;24.754;2024-01-16T09:44:48;99161.09;;;9.91;57.26
64616;BME280;51027;42.162;24.754;2024-01-16T09:47:15;99156.97;;;10.43;55.51
64616;BME280;51027;42.162;24.754;2024-01-16T09:49:42;99174.84;;;10.16;55.68
64616;BME280;51027;42.162;24.754;2024-01-16T09:52:08;99164.28;;;9.78;55.65
64616;BME280;51027;42.162;24.754;2024-01-16T09:54:34;99179.88;;;10.22;55.15
64616;BME280;51027;42.162;24.754;2024-01-16T09:57:02;99174.69;;;10.00;55.22
64616;BME280;51027;42.162;24.754;2024-01-16T09:59:31;99177.03;;;10.06;54.65
64616;BME280;51027;42.162;24.754;2024-01-16T10:01:57;99169.22;;;9.66;55.50
64616;BME280;51027;42.162;24.754;2024-01-16T10:04:26;99184.78;;;10.30;54.15
64616;BME280;51027;42.162;24.754;2024-01-16T10:06:54;99180.50;;;10.46;52.87
64616;BME280;51027;42.162;24.754;2024-01-16T10:09:22;99181.41;;;11.00;51.95
64616;BME280;51027;42.162;24.754;2024-01-16T10:11:48;99156.34;;;9.99;52.82
64616;BME280;51027;42.162;24.754;2024-01-16T10:14:17;99191.13;;;9.66;54.32
64616;BME280;51027;42.162;24.754;2024-01-16T10:17:02;99164.50;;;9.33;54.06
64616;BME280;51027;42.162;24.754;2024-01-16T10:19:30;99185.72;;;9.69;54.23
64616;BME280;51027;42.162;24.754;2024-01-16T10:22:03;99197.00;;;10.50;53.02
64616;BME280;51027;42.162;24.754;2024-01-16T10:24:28;99206.59;;;10.51;52.01
64616;BME280;51027;42.162;24.754;2024-01-16T10:26:59;99208.94;;;11.12;50.31
64616;BME280;51027;42.162;24.754;2024-01-16T10:29:31;99217.03;;;10.54;51.20
64616;BME280;51027;42.162;24.754;2024-01-16T10:32:00;99215.25;;;11.27;50.23
64616;BME280;51027;42.162;24.754;2024-01-16T10:34:26;99208.16;;;11.10;50.07
64616;BME280;51027;42.162;24.754;2024-01-16T10:36:58;99211.09;;;13.04;47.01
64616;BME280;51027;42.162;24.754;2024-01-16T10:39:28;99219.59;;;10.16;51.95
64616;BME280;51027;42.162;24.754;2024-01-16T10:41:55;99216.38;;;9.28;54.32
64616;BME280;51027;42.162;24.754;2024-01-16T10:44:21;99193.81;;;9.24;54.25
64616;BME280;51027;42.162;24.754;2024-01-16T10:46:46;99216.22;;;8.67;55.64
64616;BME280;51027;42.162;24.754;2024-01-16T10:49:12;99212.22;;;9.02;55.48
64616;BME280;51027;42.162;24.754;2024-01-16T10:51:38;99215.44;;;9.09;55.12
64616;BME280;51027;42.162;24.754;2024-01-16T10:54:05;99213.03;;;9.24;55.60
64616;BME280;51027;42.162;24.754;2024-01-16T10:56:31;99222.91;;;8.98;55.19
64616;BME280;51027;42.162;24.754;2024-01-16T10:59:05;99200.97;;;9.20;54.53
64616;BME280;51027;42.162;24.754;2024-01-16T11:01:32;99225.84;;;8.90;54.97
64616;BME280;51027;42.162;24.754;2024-01-16T11:03:58;99229.34;;;8.90;55.85
64616;BME280;51027;42.162;24.754;2024-01-16T11:06:26;99222.72;;;9.44;54.60
64616;BME280;51027;42.162;24.754;2024-01-16T11:08:54;99228.03;;;9.22;55.21
64616;BME280;51027;42.162;24.754;2024-01-16T11:11:20;99228.09;;;9.21;54.86
64616;BME280;51027;42.162;24.754;2024-01-16T11:13:48;99230.53;;;9.46;54.39
64616;BME280;51027;42.162;24.754;2024-01-16T11:16:15;99228.06;;;10.98;50.61
64616;BME280;51027;42.162;24.754;2024-01-16T11:18:41;99218.84;;;12.28;47.50
64616;BME280;51027;42.162;24.754;2024-01-16T11:21:09;99237.47;;;14.09;41.75
64616;BME280;51027;42.162;24.754;2024-01-16T11:23:36;99227.13;;;12.37;45.47
64616;BME280;51027;42.162;24.754;2024-01-16T11:26:24;99226.88;;;14.09;41.25
64616;BME280;51027;42.162;24.754;2024-01-16T11:28:50;99230.38;;;18.97;34.18
64616;BME280;51027;42.162;24.754;2024-01-16T11:31:35;99230.75;;;16.47;36.06
64616;BME280;51027;42.162;24.754;2024-01-16T11:34:02;99243.63;;;15.22;37.05
64616;BME280;51027;42.162;24.754;2024-01-16T11:36:50;99228.34;;;17.17;35.40
64616;BME280;51027;42.162;24.754;2024-01-16T11:39:25;99235.66;;;13.21;41.41
64616;BME280;51027;42.162;24.754;2024-01-16T11:44:39;99232.06;;;13.07;41.26
64616;BME280;51027;42.162;24.754;2024-01-16T11:47:05;99241.50;;;15.01;39.77
64616;BME280;51027;42.162;24.754;2024-01-16T11:49:32;99228.50;;;12.92;41.90
64616;BME280;51027;42.162;24.754;2024-01-16T11:51:58;99248.44;;;12.82;41.48
64616;BME280;51027;42.162;24.754;2024-01-16T11:54:24;99252.34;;;12.10;43.79
64616;BME280;51027;42.162;24.754;2024-01-16T11:57:19;99253.09;;;12.12;43.92
64616;BME280;51027;42.162;24.754;2024-01-16T11:59:58;99254.31;;;11.18;44.57
64616;BME280;51027;42.162;24.754;2024-01-16T12:02:42;99259.75;;;11.86;44.42
64616;BME280;51027;42.162;24.754;2024-01-16T12:05:11;99265.53;;;14.42;40.63
64616;BME280;51027;42.162;24.754;2024-01-16T12:08:03;99288.88;;;13.00;42.18
64616;BME280;51027;42.162;24.754;2024-01-16T12:10:29;99285.75;;;14.29;39.99
64616;BME280;51027;42.162;24.754;2024-01-16T12:12:58;99264.56;;;14.86;37.58
64616;BME280;51027;42.162;24.754;2024-01-16T12:15:24;99268.50;;;14.52;37.19
64616;BME280;51027;42.162;24.754;2024-01-16T12:17:59;99278.75;;;14.70;38.24
64616;BME280;51027;42.162;24.754;2024-01-16T12:20:30;99282.13;;;12.45;42.50
64616;BME280;51027;42.162;24.754;2024-01-16T12:23:03;99277.78;;;12.28;42.87
64616;BME280;51027;42.162;24.754;2024-01-16T12:25:38;99275.38;;;14.54;37.94
64616;BME280;51027;42.162;24.754;2024-01-16T12:28:05;99282.53;;;16.16;34.79
64616;BME280;51027;42.162;24.754;2024-01-16T12:30:35;99267.44;;;13.36;38.40
64616;BME280;51027;42.162;24.754;2024-01-16T12:35:43;99292.97;;;12.40;39.59
64616;BME280;51027;42.162;24.754;2024-01-16T12:38:11;99287.31;;;14.47;36.91
64616;BME280;51027;42.162;24.754;2024-01-16T12:40:54;99276.50;;;15.47;33.88
64616;BME280;51027;42.162;24.754;2024-01-16T12:43:20;99276.25;;;18.91;30.73
64616;BME280;51027;42.162;24.754;2024-01-16T12:45:46;99294.13;;;17.63;31.55
64616;BME280;51027;42.162;24.754;2024-01-16T12:48:23;99307.75;;;14.59;35.27
64616;BME280;51027;42.162;24.754;2024-01-16T12:50:49;99305.06;;;11.05;42.21
64616;BME280;51027;42.162;24.754;2024-01-16T12:53:14;99328.13;;;11.18;42.94
64616;BME280;51027;42.162;24.754;2024-01-16T12:55:42;99309.84;;;10.96;43.96
64616;BME280;51027;42.162;24.754;2024-01-16T12:58:18;99324.47;;;11.02;44.71